Opelousas, LA (70570)

6:13 PM CDT on August 25, 2016 (GMT -0500)
Gulino Street | | Change Station
Active Advisory: Flood Warning

Elev 72 ft 30.55 °N, 92.07 °W | Updated 14 seconds ago

Clear
Clear
76.8 °F
Feels Like 77 °F
N
0.4
Wind Variable Wind from WNW
Gusts 2.5 mph

Today
High -- | Low -- °F
--% Chance of Precip.
Yesterday
High -- | Low -- °F
Precip. -- in
Pressure 30.04 in
Visibility 10.0 miles
Clouds Clear
Heat Index 77 °F
Dew Point 75 °F
Humidity 94%
Rainfall 0.92 in
Snow Depth Not available.
6:41 AM 7:38 PM
Last Quarter, 41% visible
METAR KOPL 252255Z AUTO 00000KT 10SM VCTS CLR 25/24 A3004 RMK AO2 LTG DSNT NW THRU E T02450235
Pressure 30.04 in
Visibility 10.0 miles
Clouds Clear
Heat Index 77 °F
Dew Point 75 °F
Humidity 94%
Rainfall 0.92 in
Snow Depth Not available.
6:41 AM 7:38 PM
Last Quarter, 41% visible
METAR KOPL 252255Z AUTO 00000KT 10SM VCTS CLR 25/24 A3004 RMK AO2 LTG DSNT NW THRU E T02450235
A tropical disturbance pushing toward the Bahamas, is expected to develop into a tropical depression or storm, and will likely target Florida and the Gulf Coast this weekend into next week.

Right now, the disturbance remains a broad area of low pressure pushing through the Dominican Republic and Haiti, headed toward the southeast Bahamas. Rainfall totals over 3 inches (with locally higher amounts) are expected in HispaƱiola, particularly over elevated terrain.

10-Day Weather Forecast

Almanac

Astronomy

Aug. 25, 2016 Rise Set
Actual Time
Civil Twilight
Nautical Twilight
Astronomical Twilight
Moon
Length of Visible Light
Length of Day
Tomorrow will be .
, % of the Moon is Illuminated

Today's Extremes

State Highs State Lows

Community

WunderPhotos

Upload Photos

1,934,956 photos uploaded!

WunderBlog® & News

Nearby

Air Quality

  Air Quality AQ Index Pollutant
Not available.

Snow Depth

Station Depth Elevation

Earthquake Activity

City Distance Mag. Time & Date
Minimum magnitude displayed is 2.5.

Coastal Water Temperatures

Place Temperature

Stations

Nearby Weather Stations

Station Location Temp. Windchill Dew Point Humidity Wind Precip. Elev Updated Type
                   

Watches & Warnings

Flood Warning
Issued: 10:29 AM CDT Aug. 25, 2016 – National Weather Service

... Flood Warning extended until Saturday morning... the Flood Warning
continues for
The Bayou Vermilion near Carencro.
* Until Saturday morning... or until the warning is cancelled.
* At 9:00 am Thursday the stage was 17.4 feet.
* Minor flooding is occurring and minor flooding is forecast.
* Flood stage is 17.0 feet.
* Forecast... the river will continue to fall to below flood stage by
tomorrow evening.


Lat... Lon 3026 9200 3028 9193 3031 9194 3032 9189
      3046 9198 3046 9201